sensor_id;sensor_type;location;lat;lon;timestamp;P1;durP1;ratioP1;P2;durP2;ratioP2
22549;SDS011;11441;57.164;-2.120;2023-07-31T00:01:36;2.55;;;0.55;;
22549;SDS011;11441;57.164;-2.120;2023-07-31T00:06:48;1.98;;;0.80;;
22549;SDS011;11441;57.164;-2.120;2023-07-31T00:09:15;7.18;;;0.98;;
22549;SDS011;11441;57.164;-2.120;2023-07-31T00:11:42;1.35;;;0.40;;
22549;SDS011;11441;57.164;-2.120;2023-07-31T00:14:09;1.45;;;0.85;;
22549;SDS011;11441;57.164;-2.120;2023-07-31T00:16:36;4.07;;;0.77;;
22549;SDS011;11441;57.164;-2.120;2023-07-31T00:19:21;2.63;;;0.95;;
22549;SDS011;11441;57.164;-2.120;2023-07-31T00:21:48;1.42;;;0.50;;
22549;SDS011;11441;57.164;-2.120;2023-07-31T00:24:15;3.92;;;0.60;;
22549;SDS011;11441;57.164;-2.120;2023-07-31T00:26:42;2.75;;;0.80;;
22549;SDS011;11441;57.164;-2.120;2023-07-31T00:29:27;2.35;;;0.80;;
22549;SDS011;11441;57.164;-2.120;2023-07-31T00:31:56;3.58;;;1.05;;
22549;SDS011;11441;57.164;-2.120;2023-07-31T00:34:23;2.60;;;0.70;;
22549;SDS011;11441;57.164;-2.120;2023-07-31T00:36:49;1.73;;;0.52;;
22549;SDS011;11441;57.164;-2.120;2023-07-31T00:39:16;1.02;;;0.60;;
22549;SDS011;11441;57.164;-2.120;2023-07-31T00:41:43;2.47;;;0.60;;
22549;SDS011;11441;57.164;-2.120;2023-07-31T00:44:10;2.65;;;1.00;;
22549;SDS011;11441;57.164;-2.120;2023-07-31T00:46:37;1.25;;;0.90;;
22549;SDS011;11441;57.164;-2.120;2023-07-31T00:49:04;2.70;;;0.85;;
22549;SDS011;11441;57.164;-2.120;2023-07-31T00:51:32;1.20;;;0.70;;
22549;SDS011;11441;57.164;-2.120;2023-07-31T00:53:59;4.53;;;1.08;;
22549;SDS011;11441;57.164;-2.120;2023-07-31T00:56:27;4.35;;;1.20;;
22549;SDS011;11441;57.164;-2.120;2023-07-31T00:58:55;3.03;;;1.00;;
22549;SDS011;11441;57.164;-2.120;2023-07-31T01:01:22;2.58;;;0.68;;
22549;SDS011;11441;57.164;-2.120;2023-07-31T01:03:50;4.45;;;1.05;;
22549;SDS011;11441;57.164;-2.120;2023-07-31T01:11:48;2.63;;;0.73;;
22549;SDS011;11441;57.164;-2.120;2023-07-31T01:14:19;4.40;;;0.98;;
22549;SDS011;11441;57.164;-2.120;2023-07-31T01:16:46;1.30;;;1.02;;
22549;SDS011;11441;57.164;-2.120;2023-07-31T01:19:32;0.88;;;0.63;;
22549;SDS011;11441;57.164;-2.120;2023-07-31T01:28:24;0.93;;;0.65;;
22549;SDS011;11441;57.164;-2.120;2023-07-31T01:30:56;3.60;;;0.98;;
22549;SDS011;11441;57.164;-2.120;2023-07-31T01:33:26;4.82;;;0.95;;
22549;SDS011;11441;57.164;-2.120;2023-07-31T01:35:54;2.47;;;0.88;;
22549;SDS011;11441;57.164;-2.120;2023-07-31T01:38:23;1.88;;;0.90;;
22549;SDS011;11441;57.164;-2.120;2023-07-31T01:40:53;1.98;;;0.75;;
22549;SDS011;11441;57.164;-2.120;2023-07-31T01:43:20;1.90;;;0.95;;
22549;SDS011;11441;57.164;-2.120;2023-07-31T01:46:05;1.90;;;0.95;;
22549;SDS011;11441;57.164;-2.120;2023-07-31T01:48:32;3.10;;;1.10;;
22549;SDS011;11441;57.164;-2.120;2023-07-31T01:51:02;3.85;;;0.80;;
22549;SDS011;11441;57.164;-2.120;2023-07-31T01:53:31;2.03;;;0.77;;
22549;SDS011;11441;57.164;-2.120;2023-07-31T01:55:58;3.60;;;1.05;;
22549;SDS011;11441;57.164;-2.120;2023-07-31T01:58:25;5.05;;;0.75;;
22549;SDS011;11441;57.164;-2.120;2023-07-31T02:00:52;4.03;;;0.93;;
22549;SDS011;11441;57.164;-2.120;2023-07-31T02:03:18;2.00;;;0.90;;
22549;SDS011;11441;57.164;-2.120;2023-07-31T02:05:46;1.50;;;1.17;;
22549;SDS011;11441;57.164;-2.120;2023-07-31T02:08:14;4.72;;;1.58;;
22549;SDS011;11441;57.164;-2.120;2023-07-31T02:10:42;2.13;;;1.05;;
22549;SDS011;11441;57.164;-2.120;2023-07-31T02:13:09;3.75;;;1.40;;
22549;SDS011;11441;57.164;-2.120;2023-07-31T02:15:36;1.92;;;1.10;;
22549;SDS011;11441;57.164;-2.120;2023-07-31T02:18:03;1.35;;;1.05;;
22549;SDS011;11441;57.164;-2.120;2023-07-31T02:20:33;2.95;;;0.82;;
22549;SDS011;11441;57.164;-2.120;2023-07-31T02:23:01;4.15;;;1.20;;
22549;SDS011;11441;57.164;-2.120;2023-07-31T02:25:28;2.08;;;1.02;;
22549;SDS011;11441;57.164;-2.120;2023-07-31T02:27:54;2.15;;;1.10;;
22549;SDS011;11441;57.164;-2.120;2023-07-31T02:30:43;2.75;;;1.10;;
22549;SDS011;11441;57.164;-2.120;2023-07-31T02:33:11;3.90;;;1.23;;
22549;SDS011;11441;57.164;-2.120;2023-07-31T02:35:38;3.03;;;1.50;;
22549;SDS011;11441;57.164;-2.120;2023-07-31T02:38:05;3.42;;;1.45;;
22549;SDS011;11441;57.164;-2.120;2023-07-31T02:40:32;1.52;;;1.38;;
22549;SDS011;11441;57.164;-2.120;2023-07-31T02:42:59;2.13;;;1.00;;
22549;SDS011;11441;57.164;-2.120;2023-07-31T02:45:26;2.70;;;1.27;;
22549;SDS011;11441;57.164;-2.120;2023-07-31T02:47:52;2.85;;;1.70;;
22549;SDS011;11441;57.164;-2.120;2023-07-31T02:50:20;2.08;;;1.10;;
22549;SDS011;11441;57.164;-2.120;2023-07-31T02:52:47;2.25;;;1.23;;
22549;SDS011;11441;57.164;-2.120;2023-07-31T02:55:13;2.42;;;1.25;;
22549;SDS011;11441;57.164;-2.120;2023-07-31T02:57:40;3.42;;;1.40;;
22549;SDS011;11441;57.164;-2.120;2023-07-31T03:00:07;1.60;;;1.50;;
22549;SDS011;11441;57.164;-2.120;2023-07-31T03:02:34;5.15;;;1.65;;
22549;SDS011;11441;57.164;-2.120;2023-07-31T03:05:02;4.53;;;1.70;;
22549;SDS011;11441;57.164;-2.120;2023-07-31T03:07:29;2.50;;;1.52;;
22549;SDS011;11441;57.164;-2.120;2023-07-31T03:09:56;2.80;;;1.80;;
22549;SDS011;11441;57.164;-2.120;2023-07-31T03:12:23;4.75;;;1.70;;
22549;SDS011;11441;57.164;-2.120;2023-07-31T03:14:50;5.70;;;2.30;;
22549;SDS011;11441;57.164;-2.120;2023-07-31T03:17:17;2.30;;;1.48;;
22549;SDS011;11441;57.164;-2.120;2023-07-31T03:19:44;4.50;;;2.13;;
22549;SDS011;11441;57.164;-2.120;2023-07-31T03:22:10;2.88;;;1.98;;
22549;SDS011;11441;57.164;-2.120;2023-07-31T03:24:37;5.32;;;1.80;;
22549;SDS011;11441;57.164;-2.120;2023-07-31T03:27:04;3.35;;;1.33;;
22549;SDS011;11441;57.164;-2.120;2023-07-31T03:29:31;4.20;;;1.80;;
22549;SDS011;11441;57.164;-2.120;2023-07-31T03:31:59;2.53;;;1.50;;
22549;SDS011;11441;57.164;-2.120;2023-07-31T03:34:27;5.05;;;1.67;;
22549;SDS011;11441;57.164;-2.120;2023-07-31T03:36:54;3.22;;;1.60;;
22549;SDS011;11441;57.164;-2.120;2023-07-31T03:39:21;4.50;;;2.00;;
22549;SDS011;11441;57.164;-2.120;2023-07-31T03:41:49;3.75;;;2.00;;
22549;SDS011;11441;57.164;-2.120;2023-07-31T03:44:16;2.75;;;1.20;;
22549;SDS011;11441;57.164;-2.120;2023-07-31T03:46:44;6.97;;;2.10;;
22549;SDS011;11441;57.164;-2.120;2023-07-31T03:49:11;3.00;;;2.10;;
22549;SDS011;11441;57.164;-2.120;2023-07-31T03:51:38;2.42;;;1.40;;
22549;SDS011;11441;57.164;-2.120;2023-07-31T03:54:05;6.13;;;2.42;;
22549;SDS011;11441;57.164;-2.120;2023-07-31T03:56:51;5.80;;;2.05;;
22549;SDS011;11441;57.164;-2.120;2023-07-31T03:59:18;6.90;;;2.13;;
22549;SDS011;11441;57.164;-2.120;2023-07-31T04:01:45;3.13;;;1.83;;
22549;SDS011;11441;57.164;-2.120;2023-07-31T04:04:12;4.38;;;2.58;;
22549;SDS011;11441;57.164;-2.120;2023-07-31T04:06:39;2.15;;;1.95;;
22549;SDS011;11441;57.164;-2.120;2023-07-31T04:09:06;5.15;;;1.98;;
22549;SDS011;11441;57.164;-2.120;2023-07-31T04:11:50;4.78;;;2.10;;
22549;SDS011;11441;57.164;-2.120;2023-07-31T04:14:17;2.97;;;1.75;;
22549;SDS011;11441;57.164;-2.120;2023-07-31T04:16:44;5.53;;;2.10;;
22549;SDS011;11441;57.164;-2.120;2023-07-31T04:19:11;6.90;;;2.20;;
22549;SDS011;11441;57.164;-2.120;2023-07-31T04:21:38;2.17;;;1.63;;
22549;SDS011;11441;57.164;-2.120;2023-07-31T04:24:05;3.08;;;1.67;;
22549;SDS011;11441;57.164;-2.120;2023-07-31T04:26:31;1.40;;;1.30;;
22549;SDS011;11441;57.164;-2.120;2023-07-31T04:28:58;3.20;;;1.77;;
22549;SDS011;11441;57.164;-2.120;2023-07-31T04:31:25;6.38;;;2.42;;
22549;SDS011;11441;57.164;-2.120;2023-07-31T04:33:52;5.60;;;2.17;;
22549;SDS011;11441;57.164;-2.120;2023-07-31T04:36:19;4.72;;;2.20;;
22549;SDS011;11441;57.164;-2.120;2023-07-31T04:38:46;3.45;;;2.22;;
22549;SDS011;11441;57.164;-2.120;2023-07-31T04:41:31;5.38;;;2.83;;
22549;SDS011;11441;57.164;-2.120;2023-07-31T04:43:58;5.85;;;3.20;;
22549;SDS011;11441;57.164;-2.120;2023-07-31T04:46:25;3.83;;;2.85;;
22549;SDS011;11441;57.164;-2.120;2023-07-31T04:48:52;4.80;;;2.60;;
22549;SDS011;11441;57.164;-2.120;2023-07-31T04:51:19;2.40;;;2.20;;
22549;SDS011;11441;57.164;-2.120;2023-07-31T04:53:47;3.50;;;2.90;;
22549;SDS011;11441;57.164;-2.120;2023-07-31T04:56:14;4.53;;;2.95;;
22549;SDS011;11441;57.164;-2.120;2023-07-31T04:59:00;2.88;;;2.53;;
22549;SDS011;11441;57.164;-2.120;2023-07-31T05:01:27;7.07;;;2.42;;
22549;SDS011;11441;57.164;-2.120;2023-07-31T05:03:54;4.78;;;2.53;;
22549;SDS011;11441;57.164;-2.120;2023-07-31T05:06:21;4.95;;;2.30;;
22549;SDS011;11441;57.164;-2.120;2023-07-31T05:08:48;5.25;;;2.38;;
22549;SDS011;11441;57.164;-2.120;2023-07-31T05:11:15;3.40;;;2.00;;
22549;SDS011;11441;57.164;-2.120;2023-07-31T05:14:00;4.75;;;2.22;;
22549;SDS011;11441;57.164;-2.120;2023-07-31T05:16:27;5.50;;;1.88;;
22549;SDS011;11441;57.164;-2.120;2023-07-31T05:18:56;4.78;;;2.00;;
22549;SDS011;11441;57.164;-2.120;2023-07-31T05:21:22;5.03;;;1.73;;
22549;SDS011;11441;57.164;-2.120;2023-07-31T05:23:50;4.93;;;2.15;;
22549;SDS011;11441;57.164;-2.120;2023-07-31T05:26:17;2.75;;;1.58;;
22549;SDS011;11441;57.164;-2.120;2023-07-31T05:28:44;4.85;;;2.15;;
22549;SDS011;11441;57.164;-2.120;2023-07-31T05:31:11;3.75;;;2.08;;
22549;SDS011;11441;57.164;-2.120;2023-07-31T05:33:38;4.25;;;1.95;;
22549;SDS011;11441;57.164;-2.120;2023-07-31T05:36:05;5.68;;;1.70;;
22549;SDS011;11441;57.164;-2.120;2023-07-31T05:38:32;3.13;;;1.50;;
22549;SDS011;11441;57.164;-2.120;2023-07-31T05:40:59;4.55;;;2.10;;
22549;SDS011;11441;57.164;-2.120;2023-07-31T05:43:26;6.15;;;1.85;;
22549;SDS011;11441;57.164;-2.120;2023-07-31T05:45:52;4.47;;;1.80;;
22549;SDS011;11441;57.164;-2.120;2023-07-31T05:48:19;4.60;;;1.95;;
22549;SDS011;11441;57.164;-2.120;2023-07-31T05:50:46;4.93;;;2.05;;
22549;SDS011;11441;57.164;-2.120;2023-07-31T05:53:13;8.07;;;2.45;;
22549;SDS011;11441;57.164;-2.120;2023-07-31T05:55:40;2.58;;;1.70;;
22549;SDS011;11441;57.164;-2.120;2023-07-31T05:58:07;4.35;;;2.03;;
22549;SDS011;11441;57.164;-2.120;2023-07-31T06:00:33;6.78;;;2.85;;
22549;SDS011;11441;57.164;-2.120;2023-07-31T06:06:05;6.60;;;2.35;;
22549;SDS011;11441;57.164;-2.120;2023-07-31T06:08:32;4.35;;;2.20;;
22549;SDS011;11441;57.164;-2.120;2023-07-31T06:10:59;5.57;;;1.85;;
22549;SDS011;11441;57.164;-2.120;2023-07-31T06:13:26;3.33;;;1.83;;
22549;SDS011;11441;57.164;-2.120;2023-07-31T06:15:53;4.95;;;1.70;;
22549;SDS011;11441;57.164;-2.120;2023-07-31T06:18:19;4.45;;;1.58;;
22549;SDS011;11441;57.164;-2.120;2023-07-31T06:20:46;4.15;;;1.33;;
22549;SDS011;11441;57.164;-2.120;2023-07-31T06:23:14;4.47;;;1.67;;
22549;SDS011;11441;57.164;-2.120;2023-07-31T06:28:29;6.03;;;1.50;;
22549;SDS011;11441;57.164;-2.120;2023-07-31T06:30:58;5.20;;;1.55;;
22549;SDS011;11441;57.164;-2.120;2023-07-31T06:33:25;3.85;;;1.23;;
22549;SDS011;11441;57.164;-2.120;2023-07-31T06:35:52;4.65;;;1.10;;
22549;SDS011;11441;57.164;-2.120;2023-07-31T06:38:21;6.57;;;1.50;;
22549;SDS011;11441;57.164;-2.120;2023-07-31T06:40:49;4.63;;;1.50;;
22549;SDS011;11441;57.164;-2.120;2023-07-31T06:43:16;3.22;;;1.00;;
22549;SDS011;11441;57.164;-2.120;2023-07-31T06:45:43;4.93;;;1.25;;
22549;SDS011;11441;57.164;-2.120;2023-07-31T06:48:10;2.65;;;0.80;;
22549;SDS011;11441;57.164;-2.120;2023-07-31T06:50:38;5.45;;;1.00;;
22549;SDS011;11441;57.164;-2.120;2023-07-31T06:53:05;5.55;;;1.15;;
22549;SDS011;11441;57.164;-2.120;2023-07-31T06:55:32;5.97;;;1.40;;
22549;SDS011;11441;57.164;-2.120;2023-07-31T06:57:59;5.07;;;0.98;;
22549;SDS011;11441;57.164;-2.120;2023-07-31T07:00:26;6.57;;;1.52;;
22549;SDS011;11441;57.164;-2.120;2023-07-31T07:02:53;6.72;;;1.42;;
22549;SDS011;11441;57.164;-2.120;2023-07-31T07:05:20;5.97;;;1.92;;
22549;SDS011;11441;57.164;-2.120;2023-07-31T07:07:48;6.50;;;1.65;;
22549;SDS011;11441;57.164;-2.120;2023-07-31T07:10:17;2.35;;;1.58;;
22549;SDS011;11441;57.164;-2.120;2023-07-31T07:12:45;5.07;;;1.08;;
22549;SDS011;11441;57.164;-2.120;2023-07-31T07:15:12;1.50;;;1.15;;
22549;SDS011;11441;57.164;-2.120;2023-07-31T07:17:39;1.23;;;1.05;;
22549;SDS011;11441;57.164;-2.120;2023-07-31T07:20:06;3.60;;;1.00;;
22549;SDS011;11441;57.164;-2.120;2023-07-31T07:22:34;2.00;;;1.00;;
22549;SDS011;11441;57.164;-2.120;2023-07-31T07:25:01;4.45;;;1.08;;
22549;SDS011;11441;57.164;-2.120;2023-07-31T07:27:29;2.90;;;1.10;;
22549;SDS011;11441;57.164;-2.120;2023-07-31T07:29:56;3.75;;;1.05;;
22549;SDS011;11441;57.164;-2.120;2023-07-31T07:32:23;5.30;;;0.82;;
22549;SDS011;11441;57.164;-2.120;2023-07-31T07:34:50;6.47;;;1.15;;
22549;SDS011;11441;57.164;-2.120;2023-07-31T07:37:17;3.03;;;0.95;;
22549;SDS011;11441;57.164;-2.120;2023-07-31T07:39:44;2.67;;;0.90;;
22549;SDS011;11441;57.164;-2.120;2023-07-31T07:42:11;5.20;;;1.35;;
22549;SDS011;11441;57.164;-2.120;2023-07-31T07:44:38;5.57;;;1.23;;
22549;SDS011;11441;57.164;-2.120;2023-07-31T07:47:05;1.95;;;0.50;;
22549;SDS011;11441;57.164;-2.120;2023-07-31T07:52:20;1.90;;;0.85;;
22549;SDS011;11441;57.164;-2.120;2023-07-31T07:54:47;3.17;;;1.13;;
22549;SDS011;11441;57.164;-2.120;2023-07-31T07:57:13;3.00;;;0.65;;
22549;SDS011;11441;57.164;-2.120;2023-07-31T07:59:41;1.70;;;0.82;;
22549;SDS011;11441;57.164;-2.120;2023-07-31T08:02:25;4.18;;;0.70;;
22549;SDS011;11441;57.164;-2.120;2023-07-31T08:04:52;3.50;;;0.90;;
22549;SDS011;11441;57.164;-2.120;2023-07-31T08:07:19;3.35;;;0.93;;
22549;SDS011;11441;57.164;-2.120;2023-07-31T08:09:46;2.72;;;0.90;;
22549;SDS011;11441;57.164;-2.120;2023-07-31T08:12:13;2.65;;;0.85;;
22549;SDS011;11441;57.164;-2.120;2023-07-31T08:14:40;0.95;;;0.60;;
22549;SDS011;11441;57.164;-2.120;2023-07-31T08:17:25;3.90;;;0.80;;
22549;SDS011;11441;57.164;-2.120;2023-07-31T08:19:52;2.38;;;0.90;;
22549;SDS011;11441;57.164;-2.120;2023-07-31T08:22:19;0.65;;;0.60;;
22549;SDS011;11441;57.164;-2.120;2023-07-31T08:24:46;4.57;;;1.50;;
22549;SDS011;11441;57.164;-2.120;2023-07-31T08:27:31;5.90;;;0.70;;
22549;SDS011;11441;57.164;-2.120;2023-07-31T08:29:58;1.63;;;0.45;;
22549;SDS011;11441;57.164;-2.120;2023-07-31T08:32:25;2.90;;;0.88;;
22549;SDS011;11441;57.164;-2.120;2023-07-31T08:34:52;1.40;;;0.95;;
22549;SDS011;11441;57.164;-2.120;2023-07-31T08:37:19;1.35;;;0.55;;
22549;SDS011;11441;57.164;-2.120;2023-07-31T08:39:46;0.73;;;0.40;;
22549;SDS011;11441;57.164;-2.120;2023-07-31T08:42:13;1.73;;;0.65;;
22549;SDS011;11441;57.164;-2.120;2023-07-31T08:44:40;1.90;;;0.43;;
22549;SDS011;11441;57.164;-2.120;2023-07-31T08:47:07;2.03;;;0.60;;
22549;SDS011;11441;57.164;-2.120;2023-07-31T08:49:35;2.00;;;0.70;;
22549;SDS011;11441;57.164;-2.120;2023-07-31T08:52:04;1.70;;;0.70;;
22549;SDS011;11441;57.164;-2.120;2023-07-31T08:54:32;3.35;;;0.90;;
22549;SDS011;11441;57.164;-2.120;2023-07-31T08:56:59;3.55;;;1.08;;
22549;SDS011;11441;57.164;-2.120;2023-07-31T08:59:30;1.98;;;0.77;;
22549;SDS011;11441;57.164;-2.120;2023-07-31T09:02:05;2.05;;;0.77;;
22549;SDS011;11441;57.164;-2.120;2023-07-31T09:04:34;2.13;;;0.75;;
22549;SDS011;11441;57.164;-2.120;2023-07-31T09:07:02;1.13;;;0.65;;
22549;SDS011;11441;57.164;-2.120;2023-07-31T09:09:31;2.58;;;1.10;;
22549;SDS011;11441;57.164;-2.120;2023-07-31T09:11:58;1.23;;;0.60;;
22549;SDS011;11441;57.164;-2.120;2023-07-31T09:14:25;3.53;;;1.00;;
22549;SDS011;11441;57.164;-2.120;2023-07-31T09:16:53;3.10;;;0.85;;
22549;SDS011;11441;57.164;-2.120;2023-07-31T09:19:25;1.98;;;0.60;;
22549;SDS011;11441;57.164;-2.120;2023-07-31T09:21:53;6.15;;;1.00;;
22549;SDS011;11441;57.164;-2.120;2023-07-31T09:24:27;2.53;;;0.93;;
22549;SDS011;11441;57.164;-2.120;2023-07-31T09:26:55;1.88;;;1.00;;
22549;SDS011;11441;57.164;-2.120;2023-07-31T09:29:23;3.17;;;1.15;;
22549;SDS011;11441;57.164;-2.120;2023-07-31T09:31:50;7.55;;;1.38;;
22549;SDS011;11441;57.164;-2.120;2023-07-31T09:34:17;5.63;;;1.33;;
22549;SDS011;11441;57.164;-2.120;2023-07-31T09:37:01;3.25;;;1.20;;
22549;SDS011;11441;57.164;-2.120;2023-07-31T09:39:29;3.55;;;1.02;;
22549;SDS011;11441;57.164;-2.120;2023-07-31T09:41:56;1.73;;;0.65;;
22549;SDS011;11441;57.164;-2.120;2023-07-31T09:44:41;3.13;;;1.00;;
22549;SDS011;11441;57.164;-2.120;2023-07-31T09:47:21;4.70;;;0.88;;
22549;SDS011;11441;57.164;-2.120;2023-07-31T09:49:53;3.67;;;1.23;;
22549;SDS011;11441;57.164;-2.120;2023-07-31T09:52:19;5.90;;;1.17;;
22549;SDS011;11441;57.164;-2.120;2023-07-31T09:54:46;5.78;;;1.52;;
22549;SDS011;11441;57.164;-2.120;2023-07-31T09:57:13;6.20;;;1.52;;
22549;SDS011;11441;57.164;-2.120;2023-07-31T09:59:44;1.73;;;0.90;;
22549;SDS011;11441;57.164;-2.120;2023-07-31T10:02:14;2.50;;;0.88;;
22549;SDS011;11441;57.164;-2.120;2023-07-31T10:04:48;3.38;;;0.90;;
22549;SDS011;11441;57.164;-2.120;2023-07-31T10:07:17;4.35;;;1.85;;
22549;SDS011;11441;57.164;-2.120;2023-07-31T10:09:46;5.50;;;1.88;;
22549;SDS011;11441;57.164;-2.120;2023-07-31T10:12:14;4.07;;;1.27;;
22549;SDS011;11441;57.164;-2.120;2023-07-31T10:14:45;3.80;;;0.85;;
22549;SDS011;11441;57.164;-2.120;2023-07-31T10:17:12;2.85;;;1.00;;
22549;SDS011;11441;57.164;-2.120;2023-07-31T10:19:59;5.78;;;0.80;;
22549;SDS011;11441;57.164;-2.120;2023-07-31T10:22:30;2.20;;;1.05;;
22549;SDS011;11441;57.164;-2.120;2023-07-31T10:24:59;5.00;;;0.77;;
22549;SDS011;11441;57.164;-2.120;2023-07-31T10:27:26;1.98;;;0.50;;
22549;SDS011;11441;57.164;-2.120;2023-07-31T10:29:57;2.00;;;0.95;;
22549;SDS011;11441;57.164;-2.120;2023-07-31T10:32:25;3.15;;;1.65;;
22549;SDS011;11441;57.164;-2.120;2023-07-31T10:34:53;3.92;;;0.85;;
22549;SDS011;11441;57.164;-2.120;2023-07-31T10:37:22;3.42;;;1.00;;
22549;SDS011;11441;57.164;-2.120;2023-07-31T10:40:03;1.88;;;0.85;;
22549;SDS011;11441;57.164;-2.120;2023-07-31T10:42:36;4.18;;;1.10;;
22549;SDS011;11441;57.164;-2.120;2023-07-31T10:45:06;3.70;;;0.95;;
22549;SDS011;11441;57.164;-2.120;2023-07-31T10:47:38;3.35;;;0.95;;
22549;SDS011;11441;57.164;-2.120;2023-07-31T10:50:21;6.68;;;1.13;;
22549;SDS011;11441;57.164;-2.120;2023-07-31T10:52:51;3.03;;;0.90;;
22549;SDS011;11441;57.164;-2.120;2023-07-31T10:55:32;1.30;;;0.52;;
22549;SDS011;11441;57.164;-2.120;2023-07-31T10:58:10;2.60;;;0.73;;
22549;SDS011;11441;57.164;-2.120;2023-07-31T11:00:42;3.80;;;1.45;;
22549;SDS011;11441;57.164;-2.120;2023-07-31T11:03:12;1.60;;;0.80;;
22549;SDS011;11441;57.164;-2.120;2023-07-31T11:05:41;3.63;;;1.17;;
22549;SDS011;11441;57.164;-2.120;2023-07-31T11:08:40;3.60;;;0.73;;
22549;SDS011;11441;57.164;-2.120;2023-07-31T11:11:25;2.08;;;0.90;;
22549;SDS011;11441;57.164;-2.120;2023-07-31T11:14:10;6.25;;;1.75;;
22549;SDS011;11441;57.164;-2.120;2023-07-31T11:16:37;1.17;;;0.65;;
22549;SDS011;11441;57.164;-2.120;2023-07-31T11:19:26;3.05;;;0.90;;
22549;SDS011;11441;57.164;-2.120;2023-07-31T11:21:53;2.35;;;0.75;;
22549;SDS011;11441;57.164;-2.120;2023-07-31T11:24:20;2.20;;;0.82;;
22549;SDS011;11441;57.164;-2.120;2023-07-31T11:26:48;2.67;;;0.70;;
22549;SDS011;11441;57.164;-2.120;2023-07-31T11:29:17;3.25;;;1.00;;
22549;SDS011;11441;57.164;-2.120;2023-07-31T11:31:45;2.63;;;0.90;;
22549;SDS011;11441;57.164;-2.120;2023-07-31T11:34:13;4.22;;;0.52;;
22549;SDS011;11441;57.164;-2.120;2023-07-31T11:36:40;2.15;;;0.70;;
22549;SDS011;11441;57.164;-2.120;2023-07-31T11:39:08;2.50;;;0.98;;
22549;SDS011;11441;57.164;-2.120;2023-07-31T11:41:36;1.92;;;0.75;;
22549;SDS011;11441;57.164;-2.120;2023-07-31T11:44:07;4.43;;;0.88;;
22549;SDS011;11441;57.164;-2.120;2023-07-31T11:46:52;4.45;;;1.48;;
22549;SDS011;11441;57.164;-2.120;2023-07-31T11:49:19;1.45;;;1.00;;
22549;SDS011;11441;57.164;-2.120;2023-07-31T11:51:47;2.33;;;0.70;;
22549;SDS011;11441;57.164;-2.120;2023-07-31T11:54:14;5.80;;;1.10;;
22549;SDS011;11441;57.164;-2.120;2023-07-31T11:56:41;1.98;;;0.60;;
22549;SDS011;11441;57.164;-2.120;2023-07-31T11:59:10;3.40;;;0.80;;
22549;SDS011;11441;57.164;-2.120;2023-07-31T12:01:39;3.58;;;0.70;;
22549;SDS011;11441;57.164;-2.120;2023-07-31T12:04:06;2.00;;;0.75;;
22549;SDS011;11441;57.164;-2.120;2023-07-31T12:06:34;2.53;;;0.90;;
22549;SDS011;11441;57.164;-2.120;2023-07-31T12:11:47;1.13;;;0.70;;
22549;SDS011;11441;57.164;-2.120;2023-07-31T12:14:22;3.30;;;0.85;;
22549;SDS011;11441;57.164;-2.120;2023-07-31T12:16:54;5.13;;;1.05;;
22549;SDS011;11441;57.164;-2.120;2023-07-31T12:19:22;5.88;;;0.90;;
22549;SDS011;11441;57.164;-2.120;2023-07-31T12:21:54;3.70;;;1.58;;
22549;SDS011;11441;57.164;-2.120;2023-07-31T12:24:21;2.40;;;0.95;;
22549;SDS011;11441;57.164;-2.120;2023-07-31T12:26:48;5.55;;;1.40;;
22549;SDS011;11441;57.164;-2.120;2023-07-31T12:29:15;4.80;;;1.63;;
22549;SDS011;11441;57.164;-2.120;2023-07-31T12:31:42;2.83;;;1.10;;
22549;SDS011;11441;57.164;-2.120;2023-07-31T12:34:16;4.15;;;1.52;;
22549;SDS011;11441;57.164;-2.120;2023-07-31T12:36:44;1.60;;;0.82;;
22549;SDS011;11441;57.164;-2.120;2023-07-31T12:39:12;2.25;;;0.80;;
22549;SDS011;11441;57.164;-2.120;2023-07-31T12:41:39;1.70;;;0.70;;
22549;SDS011;11441;57.164;-2.120;2023-07-31T12:44:06;3.17;;;1.10;;
22549;SDS011;11441;57.164;-2.120;2023-07-31T12:46:33;4.38;;;1.00;;
22549;SDS011;11441;57.164;-2.120;2023-07-31T12:49:00;1.48;;;0.88;;
22549;SDS011;11441;57.164;-2.120;2023-07-31T12:51:27;4.43;;;1.00;;
22549;SDS011;11441;57.164;-2.120;2023-07-31T12:53:54;7.28;;;1.38;;
22549;SDS011;11441;57.164;-2.120;2023-07-31T12:56:20;3.08;;;0.90;;
22549;SDS011;11441;57.164;-2.120;2023-07-31T12:58:47;6.47;;;1.08;;
22549;SDS011;11441;57.164;-2.120;2023-07-31T13:01:14;3.28;;;1.05;;
22549;SDS011;11441;57.164;-2.120;2023-07-31T13:03:41;5.18;;;1.52;;
22549;SDS011;11441;57.164;-2.120;2023-07-31T13:06:08;6.50;;;1.98;;
22549;SDS011;11441;57.164;-2.120;2023-07-31T13:08:35;3.72;;;1.17;;
22549;SDS011;11441;57.164;-2.120;2023-07-31T13:11:02;4.13;;;1.17;;
22549;SDS011;11441;57.164;-2.120;2023-07-31T13:13:29;1.98;;;1.00;;
22549;SDS011;11441;57.164;-2.120;2023-07-31T13:15:58;4.28;;;0.75;;
22549;SDS011;11441;57.164;-2.120;2023-07-31T13:18:25;3.85;;;1.00;;
22549;SDS011;11441;57.164;-2.120;2023-07-31T13:20:52;3.35;;;1.05;;
22549;SDS011;11441;57.164;-2.120;2023-07-31T13:23:19;4.50;;;1.40;;
22549;SDS011;11441;57.164;-2.120;2023-07-31T13:26:04;6.13;;;1.35;;
22549;SDS011;11441;57.164;-2.120;2023-07-31T13:28:31;6.97;;;4.10;;
22549;SDS011;11441;57.164;-2.120;2023-07-31T13:30:58;5.85;;;2.03;;
22549;SDS011;11441;57.164;-2.120;2023-07-31T13:33:25;5.20;;;2.42;;
22549;SDS011;11441;57.164;-2.120;2023-07-31T13:36:03;8.30;;;1.98;;
22549;SDS011;11441;57.164;-2.120;2023-07-31T13:38:49;4.00;;;1.73;;
22549;SDS011;11441;57.164;-2.120;2023-07-31T13:41:15;7.07;;;1.50;;
22549;SDS011;11441;57.164;-2.120;2023-07-31T13:43:42;7.72;;;1.27;;
22549;SDS011;11441;57.164;-2.120;2023-07-31T13:46:28;6.75;;;1.90;;
22549;SDS011;11441;57.164;-2.120;2023-07-31T13:48:54;4.05;;;1.67;;
22549;SDS011;11441;57.164;-2.120;2023-07-31T13:51:22;5.10;;;1.48;;
22549;SDS011;11441;57.164;-2.120;2023-07-31T13:53:49;3.88;;;1.42;;
22549;SDS011;11441;57.164;-2.120;2023-07-31T13:56:15;6.50;;;1.63;;
22549;SDS011;11441;57.164;-2.120;2023-07-31T13:58:42;4.10;;;1.38;;
22549;SDS011;11441;57.164;-2.120;2023-07-31T14:01:09;3.15;;;1.67;;
22549;SDS011;11441;57.164;-2.120;2023-07-31T14:03:36;4.05;;;1.88;;
22549;SDS011;11441;57.164;-2.120;2023-07-31T14:06:03;4.38;;;1.80;;
22549;SDS011;11441;57.164;-2.120;2023-07-31T14:08:30;7.88;;;2.08;;
22549;SDS011;11441;57.164;-2.120;2023-07-31T14:10:57;5.80;;;1.67;;
22549;SDS011;11441;57.164;-2.120;2023-07-31T14:13:24;4.25;;;1.45;;
22549;SDS011;11441;57.164;-2.120;2023-07-31T14:15:51;7.57;;;2.50;;
22549;SDS011;11441;57.164;-2.120;2023-07-31T14:18:18;4.03;;;1.40;;
22549;SDS011;11441;57.164;-2.120;2023-07-31T14:23:31;7.75;;;1.95;;
22549;SDS011;11441;57.164;-2.120;2023-07-31T14:25:58;1.05;;;0.85;;
22549;SDS011;11441;57.164;-2.120;2023-07-31T14:28:24;8.65;;;1.63;;
22549;SDS011;11441;57.164;-2.120;2023-07-31T14:30:51;6.57;;;1.42;;
22549;SDS011;11441;57.164;-2.120;2023-07-31T14:33:18;7.10;;;1.90;;
22549;SDS011;11441;57.164;-2.120;2023-07-31T14:35:45;10.15;;;2.22;;
22549;SDS011;11441;57.164;-2.120;2023-07-31T14:38:12;2.78;;;1.38;;
22549;SDS011;11441;57.164;-2.120;2023-07-31T14:40:39;8.15;;;2.30;;
22549;SDS011;11441;57.164;-2.120;2023-07-31T14:43:06;5.45;;;2.10;;
22549;SDS011;11441;57.164;-2.120;2023-07-31T14:45:36;6.55;;;1.90;;
22549;SDS011;11441;57.164;-2.120;2023-07-31T14:48:03;5.35;;;1.52;;
22549;SDS011;11441;57.164;-2.120;2023-07-31T14:50:30;7.43;;;2.33;;
22549;SDS011;11441;57.164;-2.120;2023-07-31T14:52:57;4.57;;;1.70;;
22549;SDS011;11441;57.164;-2.120;2023-07-31T14:55:24;3.38;;;1.35;;
22549;SDS011;11441;57.164;-2.120;2023-07-31T14:57:51;6.03;;;1.50;;
22549;SDS011;11441;57.164;-2.120;2023-07-31T15:00:17;13.15;;;2.78;;
22549;SDS011;11441;57.164;-2.120;2023-07-31T15:02:44;6.22;;;1.88;;
22549;SDS011;11441;57.164;-2.120;2023-07-31T15:05:11;6.65;;;1.30;;
22549;SDS011;11441;57.164;-2.120;2023-07-31T15:07:56;3.90;;;1.58;;
22549;SDS011;11441;57.164;-2.120;2023-07-31T15:10:23;9.90;;;2.60;;
22549;SDS011;11441;57.164;-2.120;2023-07-31T15:12:50;6.50;;;1.90;;